Terminal Aerodrome Forecast
Issued by NWS

Home | Current Version | Previous Version | Text Only | Print | Product List | Glossary On
Versions: 1 2 3 4 5 6 7 8 9 10 11 12 13 14 15 16 17 18 19 20 21 22 23 24 25 26
000
FTUS42 TJSJ 030540
TAFISX
TAF
TISX 030540Z 0306/0406 11010KT P6SM -RA FEW035 BKN050 OVC080
     FM031230 11010KT P6SM VCSH SCT024 BKN070
     FM031700 12009KT P6SM -SHRA SCT020 BKN040 BKN090
     FM040200 08008KT P6SM FEW030 SCT060 BKN100=

USA.gov is the U.S. government's official web portal to all federal, state and local government web resources and services.